createdAt,value
2023-08-29T00:02:00.373Z,12.52
2023-08-29T00:04:29.807Z,11.75
2023-08-29T00:06:57.219Z,13.85
2023-08-29T00:09:24.006Z,12.75
2023-08-29T00:11:50.739Z,12.88
2023-08-29T00:14:17.535Z,12.27
2023-08-29T00:16:44.268Z,10.80
2023-08-29T00:19:11.491Z,11.93
2023-08-29T00:21:38.332Z,11.98
2023-08-29T00:24:05.510Z,11.77
2023-08-29T00:26:32.221Z,12.55
2023-08-29T00:28:59.048Z,12.10
2023-08-29T00:31:25.995Z,12.85
2023-08-29T00:33:53.322Z,12.85
2023-08-29T00:36:20.517Z,11.60
2023-08-29T00:38:47.387Z,12.15
2023-08-29T00:41:16.190Z,11.85
2023-08-29T00:43:42.976Z,12.90
2023-08-29T00:46:09.844Z,12.52
2023-08-29T00:48:38.506Z,12.63
2023-08-29T00:51:05.203Z,11.95
2023-08-29T00:53:36.378Z,11.70
2023-08-29T00:56:05.589Z,13.85
2023-08-29T00:58:33.762Z,12.00
2023-08-29T01:01:01.190Z,12.32
2023-08-29T01:03:30.645Z,11.38
2023-08-29T01:05:57.466Z,12.07
2023-08-29T01:08:24.291Z,11.75
2023-08-29T01:11:08.832Z,12.30
2023-08-29T01:13:43.188Z,13.18
2023-08-29T01:16:12.301Z,12.90
2023-08-29T01:18:39.492Z,12.63
2023-08-29T01:21:25.951Z,15.13
2023-08-29T01:24:05.841Z,12.88
2023-08-29T01:26:33.931Z,12.15
2023-08-29T01:29:02.976Z,13.15
2023-08-29T01:31:31.239Z,12.00
2023-08-29T01:34:01.891Z,12.52
2023-08-29T01:36:38.363Z,12.88
2023-08-29T01:39:05.594Z,12.48
2023-08-29T01:41:32.304Z,11.85
2023-08-29T01:43:59.313Z,12.88
2023-08-29T01:46:26.155Z,14.43
2023-08-29T01:48:53.153Z,12.65
2023-08-29T01:51:20.157Z,12.25
2023-08-29T01:53:47.009Z,13.43
2023-08-29T01:56:17.805Z,12.63
2023-08-29T01:58:46.463Z,12.77
2023-08-29T02:01:22.657Z,13.30
2023-08-29T02:03:51.132Z,12.13
2023-08-29T02:06:20.370Z,12.00
2023-08-29T02:08:47.310Z,13.57
2023-08-29T02:11:14.065Z,12.85
2023-08-29T02:13:40.840Z,13.05
2023-08-29T02:16:09.171Z,15.18
2023-08-29T02:18:35.969Z,13.50
2023-08-29T02:21:03.643Z,13.45
2023-08-29T02:23:30.345Z,13.73
2023-08-29T02:26:04.352Z,14.20
2023-08-29T02:28:39.350Z,12.38
2023-08-29T02:31:08.111Z,21.70
2023-08-29T02:33:37.163Z,13.50
2023-08-29T02:36:07.628Z,12.30
2023-08-29T02:38:35.376Z,13.48
2023-08-29T02:41:02.975Z,17.42
2023-08-29T02:43:30.053Z,14.50
2023-08-29T02:45:57.230Z,12.98
2023-08-29T02:48:25.398Z,12.75
2023-08-29T02:50:52.454Z,13.88
2023-08-29T02:53:21.168Z,13.15
2023-08-29T02:55:51.113Z,14.90
2023-08-29T02:58:18.601Z,13.57
2023-08-29T03:00:45.507Z,15.45
2023-08-29T03:03:15.180Z,13.15
2023-08-29T03:05:43.905Z,13.02
2023-08-29T03:08:11.655Z,13.70
2023-08-29T03:10:39.622Z,13.23
2023-08-29T03:13:06.736Z,14.23
2023-08-29T03:15:34.552Z,14.43
2023-08-29T03:18:03.007Z,13.35
2023-08-29T03:20:30.340Z,18.50
2023-08-29T03:22:57.094Z,14.18
2023-08-29T03:25:23.864Z,15.65
2023-08-29T03:27:50.889Z,14.40
2023-08-29T03:30:17.662Z,19.88
2023-08-29T03:32:44.705Z,15.32
2023-08-29T03:35:12.276Z,14.10
2023-08-29T03:37:40.887Z,15.25
2023-08-29T03:40:08.812Z,21.08
2023-08-29T03:42:35.598Z,15.23
2023-08-29T03:45:02.828Z,14.93
2023-08-29T03:47:29.675Z,14.48
2023-08-29T03:49:56.487Z,22.77
2023-08-29T03:52:23.964Z,14.43
2023-08-29T03:54:56.733Z,15.30
2023-08-29T03:57:24.298Z,15.55
2023-08-29T03:59:51.148Z,14.90
2023-08-29T04:02:19.847Z,15.93
2023-08-29T04:04:46.754Z,14.82
2023-08-29T04:07:13.726Z,17.35
2023-08-29T04:09:41.132Z,15.48
2023-08-29T04:12:40.593Z,15.35
2023-08-29T04:15:08.932Z,17.58
2023-08-29T04:17:37.310Z,19.85
2023-08-29T04:20:10.819Z,14.38
2023-08-29T04:22:39.989Z,15.55
2023-08-29T04:25:10.187Z,15.55
2023-08-29T04:27:39.063Z,13.98
2023-08-29T04:30:07.974Z,13.98
2023-08-29T04:32:38.694Z,13.85
2023-08-29T04:35:07.650Z,14.45
2023-08-29T04:37:35.751Z,15.02
2023-08-29T04:40:13.471Z,13.13
2023-08-29T04:42:42.131Z,13.70
2023-08-29T04:45:10.157Z,15.77
2023-08-29T04:47:37.453Z,20.92
2023-08-29T04:50:05.299Z,17.52
2023-08-29T04:52:32.943Z,14.60
2023-08-29T04:54:59.845Z,17.63
2023-08-29T04:57:27.497Z,14.30
2023-08-29T04:59:56.114Z,15.35
2023-08-29T05:02:23.432Z,14.25
2023-08-29T05:04:50.442Z,23.58
2023-08-29T05:07:17.281Z,16.27
2023-08-29T05:09:43.944Z,15.48
2023-08-29T05:12:12.446Z,15.73
2023-08-29T05:14:39.943Z,17.85
2023-08-29T05:17:10.028Z,18.25
2023-08-29T05:19:36.958Z,18.80
2023-08-29T05:22:04.301Z,19.20
2023-08-29T05:24:31.156Z,20.90
2023-08-29T05:26:57.877Z,21.77
2023-08-29T05:29:24.689Z,17.13
2023-08-29T05:31:51.348Z,21.45
2023-08-29T05:34:18.110Z,24.70
2023-08-29T05:36:44.988Z,21.95
2023-08-29T05:39:11.943Z,23.02
2023-08-29T05:41:38.601Z,17.35
2023-08-29T05:44:05.558Z,17.25
2023-08-29T05:46:32.588Z,21.33
2023-08-29T05:49:00.725Z,17.55
2023-08-29T05:51:28.125Z,16.25
2023-08-29T05:53:57.986Z,27.42
2023-08-29T05:56:24.737Z,16.70
2023-08-29T05:58:51.495Z,15.32
2023-08-29T06:01:18.258Z,14.23
2023-08-29T06:03:45.057Z,14.85
2023-08-29T06:06:12.165Z,14.20
2023-08-29T06:08:41.528Z,14.80
2023-08-29T06:11:08.442Z,14.32
2023-08-29T06:13:35.293Z,14.90
2023-08-29T06:16:02.169Z,16.40
2023-08-29T06:18:30.297Z,15.23
2023-08-29T06:20:56.936Z,15.38
2023-08-29T06:23:24.054Z,15.80
2023-08-29T06:25:50.819Z,14.63
2023-08-29T06:28:17.512Z,21.88
2023-08-29T06:30:44.243Z,14.32
2023-08-29T06:33:12.407Z,21.90
2023-08-29T06:35:39.531Z,28.20
2023-08-29T06:38:07.756Z,21.77
2023-08-29T06:40:35.136Z,14.32
2023-08-29T06:43:02.640Z,14.52
2023-08-29T06:45:29.667Z,14.27
2023-08-29T06:47:56.443Z,14.20
2023-08-29T06:50:23.317Z,13.65
2023-08-29T06:52:50.147Z,19.30
2023-08-29T06:55:17.589Z,14.45
2023-08-29T06:57:44.386Z,14.40
2023-08-29T07:00:13.038Z,17.15
2023-08-29T07:02:39.890Z,16.20
2023-08-29T07:05:06.868Z,14.50
2023-08-29T07:07:37.434Z,17.70
2023-08-29T07:10:05.562Z,14.60
2023-08-29T07:12:33.193Z,17.73
2023-08-29T07:15:02.193Z,19.95
2023-08-29T07:17:29.180Z,13.52
2023-08-29T07:19:56.281Z,19.90
2023-08-29T07:22:24.736Z,23.45
2023-08-29T07:24:54.903Z,15.75
2023-08-29T07:27:21.635Z,15.73
2023-08-29T07:29:48.654Z,14.48
2023-08-29T07:32:15.876Z,19.80
2023-08-29T07:34:42.626Z,17.23
2023-08-29T07:37:09.522Z,15.05
2023-08-29T07:39:36.608Z,15.82
2023-08-29T07:42:04.040Z,20.30
2023-08-29T07:44:31.792Z,19.58
2023-08-29T07:47:14.071Z,20.13
2023-08-29T07:49:42.597Z,16.00
2023-08-29T07:52:09.649Z,15.18
2023-08-29T07:54:36.726Z,13.30
2023-08-29T07:57:03.607Z,15.98
2023-08-29T07:59:33.570Z,12.75
2023-08-29T08:02:01.220Z,14.73
2023-08-29T08:04:28.009Z,12.85
2023-08-29T08:06:54.740Z,12.57
2023-08-29T08:09:21.544Z,12.88
2023-08-29T08:11:48.278Z,13.27
2023-08-29T08:14:15.077Z,16.67
2023-08-29T08:16:42.098Z,11.45
2023-08-29T08:19:09.003Z,11.30
2023-08-29T08:21:35.858Z,11.75
2023-08-29T08:24:02.963Z,11.88
2023-08-29T08:26:29.687Z,16.25
2023-08-29T08:28:56.399Z,11.82
2023-08-29T08:31:23.833Z,12.20
2023-08-29T08:33:50.742Z,12.07
2023-08-29T08:36:17.488Z,14.43
2023-08-29T08:38:44.241Z,17.52
2023-08-29T08:41:12.545Z,10.77
2023-08-29T08:43:42.446Z,13.55
2023-08-29T08:46:09.786Z,11.25
2023-08-29T08:48:38.903Z,11.52
2023-08-29T08:51:12.095Z,10.45
2023-08-29T08:53:39.970Z,10.75
2023-08-29T08:56:09.562Z,11.48
2023-08-29T08:58:38.274Z,9.85
2023-08-29T09:01:05.595Z,9.55
2023-08-29T09:03:32.441Z,10.30
2023-08-29T09:05:59.231Z,9.68
2023-08-29T09:08:26.015Z,9.82
2023-08-29T09:10:54.519Z,12.18
2023-08-29T09:13:21.773Z,9.70
2023-08-29T09:15:48.912Z,13.63
2023-08-29T09:18:27.240Z,10.15
2023-08-29T09:20:59.609Z,11.35
2023-08-29T09:23:28.433Z,10.48
2023-08-29T09:25:56.864Z,10.55
2023-08-29T09:28:29.014Z,14.07
2023-08-29T09:31:17.207Z,9.98
2023-08-29T09:33:44.249Z,13.27
2023-08-29T09:36:11.597Z,9.80
2023-08-29T09:38:38.374Z,14.90
2023-08-29T09:41:05.276Z,16.08
2023-08-29T09:43:33.476Z,10.27
2023-08-29T09:46:00.765Z,9.80
2023-08-29T09:48:29.206Z,9.88
2023-08-29T09:50:57.672Z,12.23
2023-08-29T09:53:24.840Z,10.23
2023-08-29T09:56:11.270Z,13.68
2023-08-29T09:58:42.793Z,10.65
2023-08-29T10:01:11.898Z,13.15
2023-08-29T10:03:40.133Z,9.95
2023-08-29T10:06:10.852Z,10.60
2023-08-29T10:08:55.610Z,10.02
2023-08-29T10:11:24.289Z,9.57
2023-08-29T10:13:51.827Z,10.05
2023-08-29T10:16:20.487Z,9.88
2023-08-29T10:18:49.556Z,11.20
2023-08-29T10:21:19.011Z,16.90
2023-08-29T10:23:46.231Z,10.38
2023-08-29T10:26:14.120Z,12.48
2023-08-29T10:28:42.024Z,15.85
2023-08-29T10:31:09.974Z,8.95
2023-08-29T10:33:39.163Z,9.20
2023-08-29T10:36:10.189Z,9.98
2023-08-29T10:38:40.485Z,9.20
2023-08-29T10:41:12.119Z,11.90
2023-08-29T10:43:39.201Z,8.43
2023-08-29T10:46:12.102Z,9.00
2023-08-29T10:48:47.635Z,10.27
2023-08-29T10:51:16.076Z,9.25
2023-08-29T10:53:49.724Z,9.18
2023-08-29T10:56:19.269Z,8.55
2023-08-29T10:58:51.018Z,8.55
2023-08-29T11:01:29.649Z,9.10
2023-08-29T11:03:57.657Z,10.77
2023-08-29T11:06:48.556Z,8.50
2023-08-29T11:09:23.225Z,8.10
2023-08-29T11:12:14.212Z,9.27
2023-08-29T11:14:54.795Z,10.25
2023-08-29T11:17:24.854Z,11.68
2023-08-29T11:19:55.635Z,9.88
2023-08-29T11:22:24.028Z,8.27
2023-08-29T11:24:58.273Z,9.50
2023-08-29T11:27:32.508Z,11.10
2023-08-29T11:30:19.529Z,9.10
2023-08-29T11:32:52.983Z,9.02
2023-08-29T11:35:20.080Z,8.88
2023-08-29T11:37:46.811Z,10.93
2023-08-29T11:40:18.974Z,8.10
2023-08-29T11:43:24.681Z,9.15
2023-08-29T11:45:47.584Z,8.52
2023-08-29T11:48:23.240Z,8.55
2023-08-29T11:50:54.023Z,8.38
2023-08-29T11:53:27.678Z,9.10
2023-08-29T11:55:54.624Z,8.40
2023-08-29T11:58:24.890Z,11.07
2023-08-29T12:00:53.405Z,8.95
2023-08-29T12:03:24.058Z,13.73
2023-08-29T12:05:50.889Z,7.80
2023-08-29T12:08:20.286Z,9.20
2023-08-29T12:10:54.261Z,10.27
2023-08-29T12:13:22.773Z,9.00
2023-08-29T12:15:49.892Z,8.60
2023-08-29T12:18:27.126Z,9.88
2023-08-29T12:21:13.046Z,10.32
2023-08-29T12:23:39.926Z,7.68
2023-08-29T12:26:06.704Z,8.50
2023-08-29T12:28:33.442Z,9.07
2023-08-29T12:31:00.269Z,13.85
2023-08-29T12:33:27.780Z,10.85
2023-08-29T12:35:57.167Z,8.45
2023-08-29T12:38:27.941Z,8.02
2023-08-29T12:40:54.780Z,8.73
2023-08-29T12:43:21.577Z,11.52
2023-08-29T12:45:57.242Z,8.90
2023-08-29T12:48:26.376Z,8.40
2023-08-29T12:50:53.079Z,8.82
2023-08-29T12:53:19.873Z,8.68
2023-08-29T12:55:46.577Z,9.25
2023-08-29T12:58:14.079Z,8.95
2023-08-29T13:00:42.893Z,9.27
2023-08-29T13:03:10.432Z,8.90
2023-08-29T13:05:37.495Z,9.23
2023-08-29T13:08:05.589Z,8.93
2023-08-29T13:10:32.639Z,11.30
2023-08-29T13:12:59.372Z,9.65
2023-08-29T13:15:33.898Z,9.85
2023-08-29T13:18:08.312Z,9.45
2023-08-29T13:20:35.436Z,9.10
2023-08-29T13:23:02.126Z,9.68
2023-08-29T13:25:29.902Z,8.77
2023-08-29T13:27:56.935Z,8.85
2023-08-29T13:30:23.723Z,8.93
2023-08-29T13:32:52.025Z,13.32
2023-08-29T13:35:18.844Z,9.93
2023-08-29T13:37:48.427Z,13.00
2023-08-29T13:40:15.149Z,8.10
2023-08-29T13:42:42.812Z,9.00
2023-08-29T13:45:09.982Z,9.52
2023-08-29T13:47:36.775Z,16.08
2023-08-29T13:50:03.846Z,9.10
2023-08-29T13:52:30.657Z,9.23
2023-08-29T13:54:57.681Z,14.95
2023-08-29T13:57:24.628Z,10.02
2023-08-29T13:59:51.407Z,9.35
2023-08-29T14:02:20.773Z,12.02
2023-08-29T14:04:47.535Z,8.60
2023-08-29T14:07:16.975Z,9.35
2023-08-29T14:09:43.678Z,11.30
2023-08-29T14:12:10.515Z,10.27
2023-08-29T14:14:37.213Z,9.38
2023-08-29T14:17:04.029Z,9.60
2023-08-29T14:19:31.371Z,10.82
2023-08-29T14:21:58.085Z,10.18
2023-08-29T14:24:24.733Z,11.70
2023-08-29T14:26:51.408Z,9.55
2023-08-29T14:29:18.112Z,9.75
2023-08-29T14:31:44.847Z,9.05
2023-08-29T14:34:11.659Z,11.27
2023-08-29T14:36:38.379Z,9.90
2023-08-29T14:39:05.234Z,11.65
2023-08-29T14:41:32.011Z,9.77
2023-08-29T14:43:58.953Z,9.38
2023-08-29T14:46:25.889Z,11.38
2023-08-29T14:48:52.660Z,10.15
2023-08-29T14:51:19.732Z,9.88
2023-08-29T14:53:46.684Z,9.68
2023-08-29T14:56:13.384Z,11.52
2023-08-29T14:58:43.946Z,11.10
2023-08-29T15:01:10.803Z,14.32
2023-08-29T15:03:37.868Z,11.68
2023-08-29T15:06:05.640Z,10.60
2023-08-29T15:08:32.449Z,11.10
2023-08-29T15:10:59.714Z,10.25
2023-08-29T15:13:26.426Z,11.40
2023-08-29T15:15:53.584Z,10.00
2023-08-29T15:18:20.391Z,11.18
2023-08-29T15:20:47.157Z,10.23
2023-08-29T15:23:16.173Z,10.55
2023-08-29T15:25:43.493Z,10.45
2023-08-29T15:28:13.344Z,11.35
2023-08-29T15:30:40.185Z,12.52
2023-08-29T15:33:06.901Z,10.27
2023-08-29T15:35:36.011Z,10.20
2023-08-29T15:38:03.283Z,10.93
2023-08-29T15:40:29.992Z,9.80
2023-08-29T15:42:59.035Z,12.98
2023-08-29T15:45:26.028Z,9.93
2023-08-29T15:47:54.198Z,9.18
2023-08-29T15:50:20.949Z,9.93
2023-08-29T15:52:47.577Z,10.20
2023-08-29T15:55:14.367Z,9.57
2023-08-29T15:57:41.003Z,10.93
2023-08-29T16:00:13.951Z,10.07
2023-08-29T16:02:43.451Z,10.35
2023-08-29T16:05:11.340Z,9.98
2023-08-29T16:07:38.228Z,9.52
2023-08-29T16:10:05.653Z,10.15
2023-08-29T16:12:32.614Z,16.90
2023-08-29T16:14:59.316Z,10.07
2023-08-29T16:17:26.613Z,11.25
2023-08-29T16:19:54.338Z,12.52
2023-08-29T16:22:21.030Z,14.88
2023-08-29T16:24:47.787Z,9.52
2023-08-29T16:27:16.924Z,15.38
2023-08-29T16:29:43.742Z,10.68
2023-08-29T16:32:10.484Z,16.63
2023-08-29T16:34:37.205Z,17.45
2023-08-29T16:37:05.124Z,9.93
2023-08-29T16:39:33.869Z,11.13
2023-08-29T16:42:01.005Z,9.40
2023-08-29T16:44:28.831Z,9.77
2023-08-29T16:46:55.692Z,13.18
2023-08-29T16:49:22.443Z,9.23
2023-08-29T16:51:49.213Z,10.98
2023-08-29T16:54:16.452Z,10.23
2023-08-29T16:56:43.406Z,10.65
2023-08-29T16:59:10.191Z,12.02
2023-08-29T17:01:37.803Z,15.75
2023-08-29T17:04:06.296Z,17.15
2023-08-29T17:06:33.120Z,12.40
2023-08-29T17:08:59.825Z,11.63
2023-08-29T17:11:26.791Z,9.30
2023-08-29T17:13:53.892Z,9.50
2023-08-29T17:16:20.779Z,12.13
2023-08-29T17:18:48.198Z,12.68
2023-08-29T17:21:14.922Z,10.88
2023-08-29T17:23:41.753Z,10.35
2023-08-29T17:26:08.737Z,10.30
2023-08-29T17:28:35.510Z,11.90
2023-08-29T17:31:11.768Z,11.93
2023-08-29T17:33:39.126Z,13.10
2023-08-29T17:36:06.914Z,12.32
2023-08-29T17:38:34.101Z,12.23
2023-08-29T17:41:03.256Z,16.70
2023-08-29T17:43:30.346Z,13.60
2023-08-29T17:45:58.129Z,15.65
2023-08-29T17:48:28.338Z,11.63
2023-08-29T17:51:06.804Z,11.90
2023-08-29T17:53:33.834Z,10.98
2023-08-29T17:56:02.180Z,13.32
2023-08-29T17:58:30.617Z,13.65
2023-08-29T18:00:59.241Z,15.73
2023-08-29T18:03:26.279Z,11.30
2023-08-29T18:05:57.983Z,15.25
2023-08-29T18:08:30.962Z,13.70
2023-08-29T18:10:57.924Z,14.55
2023-08-29T18:13:25.165Z,16.23
2023-08-29T18:15:52.170Z,15.95
2023-08-29T18:18:21.663Z,16.73
2023-08-29T18:20:54.316Z,15.68
2023-08-29T18:23:21.645Z,14.30
2023-08-29T18:25:52.440Z,12.60
2023-08-29T18:28:19.104Z,13.07
2023-08-29T18:30:46.017Z,17.02
2023-08-29T18:33:12.796Z,13.35
2023-08-29T18:35:41.132Z,14.00
2023-08-29T18:38:08.298Z,14.43
2023-08-29T18:40:35.327Z,12.73
2023-08-29T18:43:04.953Z,13.45
2023-08-29T18:45:31.899Z,12.35
2023-08-29T18:48:01.648Z,12.73
2023-08-29T18:50:33.891Z,13.70
2023-08-29T18:53:00.917Z,12.35
2023-08-29T18:55:27.650Z,13.23
2023-08-29T18:57:54.408Z,13.10
2023-08-29T19:00:21.146Z,13.13
2023-08-29T19:02:48.482Z,15.45
2023-08-29T19:05:16.434Z,11.70
2023-08-29T19:07:46.579Z,11.98
2023-08-29T19:10:15.077Z,12.13
2023-08-29T19:12:42.456Z,13.90
2023-08-29T19:15:09.706Z,15.05
2023-08-29T19:17:36.543Z,15.75
2023-08-29T19:20:03.600Z,13.52
2023-08-29T19:22:30.654Z,13.15
2023-08-29T19:24:57.398Z,14.60
2023-08-29T19:27:29.192Z,13.90
2023-08-29T19:29:55.903Z,23.45
2023-08-29T19:32:22.869Z,14.18
2023-08-29T19:34:49.630Z,13.27
2023-08-29T19:37:17.622Z,14.60
2023-08-29T19:39:44.349Z,13.95
2023-08-29T19:42:11.020Z,14.35
2023-08-29T19:44:37.804Z,13.98
2023-08-29T19:47:06.852Z,14.65
2023-08-29T19:49:38.804Z,13.98
2023-08-29T19:52:08.717Z,13.18
2023-08-29T19:54:35.872Z,19.92
2023-08-29T19:57:02.794Z,13.63
2023-08-29T19:59:29.696Z,14.25
2023-08-29T20:01:59.468Z,14.80
2023-08-29T20:04:26.157Z,26.40
2023-08-29T20:06:52.874Z,13.43
2023-08-29T20:09:19.671Z,15.43
2023-08-29T20:11:46.540Z,14.15
2023-08-29T20:14:13.716Z,14.98
2023-08-29T20:16:40.466Z,14.45
2023-08-29T20:19:07.269Z,16.10
2023-08-29T20:21:37.460Z,13.88
2023-08-29T20:24:04.882Z,17.85
2023-08-29T20:26:32.206Z,13.95
2023-08-29T20:29:00.714Z,13.57
2023-08-29T20:31:28.131Z,14.23
2023-08-29T20:33:54.775Z,12.45
2023-08-29T20:36:22.156Z,13.65
2023-08-29T20:38:48.998Z,13.50
2023-08-29T20:41:15.818Z,16.20
2023-08-29T20:43:42.689Z,13.00
2023-08-29T20:46:11.751Z,13.15
2023-08-29T20:48:38.500Z,15.43
2023-08-29T20:51:05.237Z,12.85
2023-08-29T20:53:37.418Z,19.42
2023-08-29T20:56:07.219Z,14.65
2023-08-29T20:58:33.937Z,11.98
2023-08-29T21:01:01.826Z,12.73
2023-08-29T21:03:30.551Z,12.80
2023-08-29T21:06:00.555Z,12.68
2023-08-29T21:08:27.840Z,13.02
2023-08-29T21:10:54.971Z,16.45
2023-08-29T21:13:26.111Z,13.65
2023-08-29T21:15:56.198Z,13.32
2023-08-29T21:18:22.946Z,13.15
2023-08-29T21:20:50.622Z,12.88
2023-08-29T21:23:17.321Z,13.73
2023-08-29T21:25:48.173Z,12.95
2023-08-29T21:28:21.767Z,13.88
2023-08-29T21:30:48.515Z,13.68
2023-08-29T21:33:16.360Z,13.68
2023-08-29T21:35:44.110Z,13.27
2023-08-29T21:38:12.345Z,14.93
2023-08-29T21:40:44.344Z,25.08
2023-08-29T21:43:15.193Z,13.80
2023-08-29T21:45:42.165Z,15.52
2023-08-29T21:48:11.328Z,16.73
2023-08-29T21:50:45.194Z,13.57
2023-08-29T21:53:14.442Z,13.88
2023-08-29T21:55:42.466Z,16.90
2023-08-29T21:58:17.414Z,12.70
2023-08-29T22:00:48.543Z,18.27
2023-08-29T22:03:18.592Z,12.75
2023-08-29T22:05:45.541Z,14.10
2023-08-29T22:08:12.382Z,14.02
2023-08-29T22:10:39.233Z,13.48
2023-08-29T22:13:06.421Z,13.50
2023-08-29T22:15:34.006Z,13.70
2023-08-29T22:18:00.838Z,19.60
2023-08-29T22:20:28.159Z,19.23
2023-08-29T22:22:56.037Z,19.38
2023-08-29T22:25:23.920Z,20.90
2023-08-29T22:27:50.718Z,18.50
2023-08-29T22:30:17.975Z,16.38
2023-08-29T22:32:44.806Z,16.52
2023-08-29T22:35:11.615Z,15.30
2023-08-29T22:37:38.538Z,15.23
2023-08-29T22:40:06.089Z,16.40
2023-08-29T22:42:32.968Z,14.88
2023-08-29T22:44:59.812Z,14.13
2023-08-29T22:47:26.640Z,16.58
2023-08-29T22:49:53.462Z,14.32
2023-08-29T22:52:20.161Z,14.00
2023-08-29T22:54:46.871Z,16.15
2023-08-29T22:57:13.548Z,15.13
2023-08-29T22:59:40.269Z,16.40
2023-08-29T23:02:07.068Z,15.07
2023-08-29T23:04:34.937Z,14.77
2023-08-29T23:07:08.772Z,16.88
2023-08-29T23:09:37.309Z,14.13
2023-08-29T23:12:05.091Z,14.00
2023-08-29T23:14:32.071Z,14.25
2023-08-29T23:16:58.794Z,14.73
2023-08-29T23:19:25.794Z,14.68
2023-08-29T23:21:55.921Z,16.13
2023-08-29T23:24:22.644Z,14.38
2023-08-29T23:26:49.654Z,14.63
2023-08-29T23:29:16.794Z,15.90
2023-08-29T23:31:43.904Z,14.98
2023-08-29T23:34:11.005Z,17.08
2023-08-29T23:36:38.206Z,15.55
2023-08-29T23:39:08.223Z,16.25
2023-08-29T23:41:35.391Z,15.18
2023-08-29T23:44:02.195Z,15.18
2023-08-29T23:46:29.140Z,16.17
2023-08-29T23:48:55.996Z,14.23
2023-08-29T23:51:23.554Z,15.90
2023-08-29T23:53:51.697Z,16.55
2023-08-29T23:56:18.931Z,14.43
2023-08-29T23:58:46.718Z,14.93
